sensor_id;sensor_type;location;lat;lon;timestamp;P1;durP1;ratioP1;P2;durP2;ratioP2
42912;SDS011;50720;54.324;18.558;2024-01-10T00:01:33;11.88;;;6.25;;
42912;SDS011;50720;54.324;18.558;2024-01-10T00:04:03;14.90;;;7.80;;
42912;SDS011;50720;54.324;18.558;2024-01-10T00:06:33;14.55;;;7.72;;
42912;SDS011;50720;54.324;18.558;2024-01-10T00:09:05;11.70;;;7.72;;
42912;SDS011;50720;54.324;18.558;2024-01-10T00:11:36;13.40;;;6.75;;
42912;SDS011;50720;54.324;18.558;2024-01-10T00:14:07;13.00;;;6.15;;
42912;SDS011;50720;54.324;18.558;2024-01-10T00:16:37;13.35;;;6.88;;
42912;SDS011;50720;54.324;18.558;2024-01-10T00:19:07;17.13;;;8.43;;
42912;SDS011;50720;54.324;18.558;2024-01-10T00:21:37;21.10;;;8.43;;
42912;SDS011;50720;54.324;18.558;2024-01-10T00:24:07;15.65;;;7.80;;
42912;SDS011;50720;54.324;18.558;2024-01-10T00:26:38;11.52;;;6.18;;
42912;SDS011;50720;54.324;18.558;2024-01-10T00:29:09;16.80;;;7.82;;
42912;SDS011;50720;54.324;18.558;2024-01-10T00:31:39;17.67;;;8.10;;
42912;SDS011;50720;54.324;18.558;2024-01-10T00:36:39;15.30;;;7.22;;
42912;SDS011;50720;54.324;18.558;2024-01-10T00:39:09;10.77;;;5.97;;
42912;SDS011;50720;54.324;18.558;2024-01-10T00:41:40;13.93;;;5.72;;
42912;SDS011;50720;54.324;18.558;2024-01-10T00:44:11;10.00;;;5.30;;
42912;SDS011;50720;54.324;18.558;2024-01-10T00:46:40;14.50;;;6.88;;
42912;SDS011;50720;54.324;18.558;2024-01-10T00:49:11;14.57;;;7.27;;
42912;SDS011;50720;54.324;18.558;2024-01-10T00:51:40;15.50;;;7.82;;
42912;SDS011;50720;54.324;18.558;2024-01-10T00:54:11;13.32;;;6.85;;
42912;SDS011;50720;54.324;18.558;2024-01-10T00:56:42;14.20;;;7.03;;
42912;SDS011;50720;54.324;18.558;2024-01-10T00:59:12;14.63;;;7.63;;
42912;SDS011;50720;54.324;18.558;2024-01-10T01:01:42;13.75;;;6.97;;
42912;SDS011;50720;54.324;18.558;2024-01-10T01:04:13;12.23;;;6.45;;
42912;SDS011;50720;54.324;18.558;2024-01-10T01:06:42;12.20;;;5.65;;
42912;SDS011;50720;54.324;18.558;2024-01-10T01:09:13;11.33;;;7.20;;
42912;SDS011;50720;54.324;18.558;2024-01-10T01:11:44;9.40;;;5.25;;
42912;SDS011;50720;54.324;18.558;2024-01-10T01:14:14;10.88;;;6.10;;
42912;SDS011;50720;54.324;18.558;2024-01-10T01:16:44;13.80;;;6.95;;
42912;SDS011;50720;54.324;18.558;2024-01-10T01:19:14;14.93;;;6.78;;
42912;SDS011;50720;54.324;18.558;2024-01-10T01:21:44;8.68;;;5.30;;
42912;SDS011;50720;54.324;18.558;2024-01-10T01:24:14;11.33;;;6.50;;
42912;SDS011;50720;54.324;18.558;2024-01-10T01:26:46;12.48;;;6.97;;
42912;SDS011;50720;54.324;18.558;2024-01-10T01:29:16;13.15;;;6.53;;
42912;SDS011;50720;54.324;18.558;2024-01-10T01:31:46;12.35;;;6.95;;
42912;SDS011;50720;54.324;18.558;2024-01-10T01:34:16;12.75;;;7.07;;
42912;SDS011;50720;54.324;18.558;2024-01-10T01:36:46;11.95;;;6.65;;
42912;SDS011;50720;54.324;18.558;2024-01-10T01:39:19;14.30;;;8.55;;
42912;SDS011;50720;54.324;18.558;2024-01-10T01:41:50;14.43;;;7.68;;
42912;SDS011;50720;54.324;18.558;2024-01-10T01:44:20;10.05;;;6.28;;
42912;SDS011;50720;54.324;18.558;2024-01-10T01:46:50;15.88;;;7.80;;
42912;SDS011;50720;54.324;18.558;2024-01-10T01:49:20;13.38;;;6.82;;
42912;SDS011;50720;54.324;18.558;2024-01-10T01:51:52;13.25;;;7.30;;
42912;SDS011;50720;54.324;18.558;2024-01-10T01:54:23;10.95;;;6.78;;
42912;SDS011;50720;54.324;18.558;2024-01-10T01:56:55;13.52;;;7.38;;
42912;SDS011;50720;54.324;18.558;2024-01-10T01:59:25;9.50;;;5.70;;
42912;SDS011;50720;54.324;18.558;2024-01-10T02:01:55;12.77;;;7.15;;
42912;SDS011;50720;54.324;18.558;2024-01-10T02:04:28;12.30;;;7.38;;
42912;SDS011;50720;54.324;18.558;2024-01-10T02:06:59;14.75;;;8.18;;
42912;SDS011;50720;54.324;18.558;2024-01-10T02:09:29;11.90;;;6.70;;
42912;SDS011;50720;54.324;18.558;2024-01-10T02:12:01;12.77;;;7.18;;
42912;SDS011;50720;54.324;18.558;2024-01-10T02:14:32;13.82;;;8.35;;
42912;SDS011;50720;54.324;18.558;2024-01-10T02:17:02;9.68;;;5.55;;
42912;SDS011;50720;54.324;18.558;2024-01-10T02:19:32;13.38;;;7.50;;
42912;SDS011;50720;54.324;18.558;2024-01-10T02:22:02;10.05;;;6.68;;
42912;SDS011;50720;54.324;18.558;2024-01-10T02:24:33;14.23;;;7.20;;
42912;SDS011;50720;54.324;18.558;2024-01-10T02:27:04;13.02;;;6.85;;
42912;SDS011;50720;54.324;18.558;2024-01-10T02:29:35;13.25;;;7.88;;
42912;SDS011;50720;54.324;18.558;2024-01-10T02:32:05;14.45;;;7.53;;
42912;SDS011;50720;54.324;18.558;2024-01-10T02:37:05;13.10;;;7.63;;
42912;SDS011;50720;54.324;18.558;2024-01-10T02:39:35;15.70;;;7.90;;
42912;SDS011;50720;54.324;18.558;2024-01-10T02:42:07;11.38;;;6.05;;
42912;SDS011;50720;54.324;18.558;2024-01-10T02:44:37;7.88;;;5.13;;
42912;SDS011;50720;54.324;18.558;2024-01-10T02:47:07;9.98;;;6.60;;
42912;SDS011;50720;54.324;18.558;2024-01-10T02:49:37;12.48;;;7.60;;
42912;SDS011;50720;54.324;18.558;2024-01-10T02:52:07;14.30;;;7.88;;
42912;SDS011;50720;54.324;18.558;2024-01-10T02:54:37;15.00;;;8.37;;
42912;SDS011;50720;54.324;18.558;2024-01-10T02:57:09;12.10;;;7.35;;
42912;SDS011;50720;54.324;18.558;2024-01-10T02:59:39;10.43;;;6.40;;
42912;SDS011;50720;54.324;18.558;2024-01-10T03:02:09;11.35;;;6.82;;
42912;SDS011;50720;54.324;18.558;2024-01-10T03:04:39;10.35;;;6.85;;
42912;SDS011;50720;54.324;18.558;2024-01-10T03:07:09;11.40;;;7.05;;
42912;SDS011;50720;54.324;18.558;2024-01-10T03:09:39;13.07;;;6.97;;
42912;SDS011;50720;54.324;18.558;2024-01-10T03:12:11;12.90;;;7.53;;
42912;SDS011;50720;54.324;18.558;2024-01-10T03:14:41;12.13;;;7.43;;
42912;SDS011;50720;54.324;18.558;2024-01-10T03:17:11;14.20;;;7.53;;
42912;SDS011;50720;54.324;18.558;2024-01-10T03:19:41;14.73;;;7.45;;
42912;SDS011;50720;54.324;18.558;2024-01-10T03:22:11;12.25;;;7.18;;
42912;SDS011;50720;54.324;18.558;2024-01-10T03:24:42;14.27;;;7.67;;
42912;SDS011;50720;54.324;18.558;2024-01-10T03:27:13;11.43;;;6.68;;
42912;SDS011;50720;54.324;18.558;2024-01-10T03:29:43;11.38;;;7.13;;
42912;SDS011;50720;54.324;18.558;2024-01-10T03:32:13;13.75;;;6.25;;
42912;SDS011;50720;54.324;18.558;2024-01-10T03:34:43;13.77;;;7.80;;
42912;SDS011;50720;54.324;18.558;2024-01-10T03:37:13;11.30;;;7.40;;
42912;SDS011;50720;54.324;18.558;2024-01-10T03:39:43;13.70;;;7.43;;
42912;SDS011;50720;54.324;18.558;2024-01-10T03:42:15;11.70;;;6.63;;
42912;SDS011;50720;54.324;18.558;2024-01-10T03:44:45;13.20;;;7.88;;
42912;SDS011;50720;54.324;18.558;2024-01-10T03:47:15;12.85;;;7.00;;
42912;SDS011;50720;54.324;18.558;2024-01-10T03:49:45;12.60;;;7.25;;
42912;SDS011;50720;54.324;18.558;2024-01-10T03:52:15;10.65;;;7.25;;
42912;SDS011;50720;54.324;18.558;2024-01-10T03:54:46;12.40;;;7.95;;
42912;SDS011;50720;54.324;18.558;2024-01-10T03:57:18;11.77;;;6.05;;
42912;SDS011;50720;54.324;18.558;2024-01-10T03:59:48;10.60;;;6.22;;
42912;SDS011;50720;54.324;18.558;2024-01-10T04:02:18;10.48;;;5.53;;
42912;SDS011;50720;54.324;18.558;2024-01-10T04:04:48;10.95;;;6.70;;
42912;SDS011;50720;54.324;18.558;2024-01-10T04:07:18;12.65;;;6.53;;
42912;SDS011;50720;54.324;18.558;2024-01-10T04:09:48;8.17;;;5.33;;
42912;SDS011;50720;54.324;18.558;2024-01-10T04:12:19;14.82;;;6.53;;
42912;SDS011;50720;54.324;18.558;2024-01-10T04:14:50;11.05;;;6.05;;
42912;SDS011;50720;54.324;18.558;2024-01-10T04:17:19;12.50;;;6.53;;
42912;SDS011;50720;54.324;18.558;2024-01-10T04:19:50;12.25;;;6.78;;
42912;SDS011;50720;54.324;18.558;2024-01-10T04:22:19;9.70;;;5.32;;
42912;SDS011;50720;54.324;18.558;2024-01-10T04:24:50;9.23;;;5.63;;
42912;SDS011;50720;54.324;18.558;2024-01-10T04:27:21;9.75;;;6.25;;
42912;SDS011;50720;54.324;18.558;2024-01-10T04:29:52;10.75;;;5.38;;
42912;SDS011;50720;54.324;18.558;2024-01-10T04:32:21;10.32;;;6.45;;
42912;SDS011;50720;54.324;18.558;2024-01-10T04:34:52;8.27;;;5.90;;
42912;SDS011;50720;54.324;18.558;2024-01-10T04:37:22;11.45;;;6.85;;
42912;SDS011;50720;54.324;18.558;2024-01-10T04:39:53;12.27;;;7.50;;
42912;SDS011;50720;54.324;18.558;2024-01-10T04:42:25;9.32;;;5.88;;
42912;SDS011;50720;54.324;18.558;2024-01-10T04:44:55;13.65;;;6.85;;
42912;SDS011;50720;54.324;18.558;2024-01-10T04:47:25;13.68;;;7.25;;
42912;SDS011;50720;54.324;18.558;2024-01-10T04:49:55;8.63;;;5.57;;
42912;SDS011;50720;54.324;18.558;2024-01-10T04:52:25;10.07;;;5.75;;
42912;SDS011;50720;54.324;18.558;2024-01-10T04:54:55;11.43;;;6.67;;
42912;SDS011;50720;54.324;18.558;2024-01-10T04:57:26;10.32;;;6.03;;
42912;SDS011;50720;54.324;18.558;2024-01-10T04:59:57;10.57;;;6.32;;
42912;SDS011;50720;54.324;18.558;2024-01-10T05:02:27;6.05;;;3.65;;
42912;SDS011;50720;54.324;18.558;2024-01-10T05:04:58;8.02;;;4.65;;
42912;SDS011;50720;54.324;18.558;2024-01-10T05:07:28;10.18;;;5.63;;
42912;SDS011;50720;54.324;18.558;2024-01-10T05:09:58;10.60;;;5.67;;
42912;SDS011;50720;54.324;18.558;2024-01-10T05:12:30;7.68;;;5.75;;
42912;SDS011;50720;54.324;18.558;2024-01-10T05:15:00;8.32;;;5.03;;
42912;SDS011;50720;54.324;18.558;2024-01-10T05:17:30;9.90;;;5.78;;
42912;SDS011;50720;54.324;18.558;2024-01-10T05:20:00;8.45;;;5.68;;
42912;SDS011;50720;54.324;18.558;2024-01-10T05:22:31;8.20;;;5.43;;
42912;SDS011;50720;54.324;18.558;2024-01-10T05:25:01;8.30;;;4.43;;
42912;SDS011;50720;54.324;18.558;2024-01-10T05:27:33;7.25;;;5.25;;
42912;SDS011;50720;54.324;18.558;2024-01-10T05:30:03;9.15;;;5.95;;
42912;SDS011;50720;54.324;18.558;2024-01-10T05:32:34;8.25;;;5.03;;
42912;SDS011;50720;54.324;18.558;2024-01-10T05:35:05;10.40;;;6.40;;
42912;SDS011;50720;54.324;18.558;2024-01-10T05:37:35;9.23;;;4.97;;
42912;SDS011;50720;54.324;18.558;2024-01-10T05:40:06;9.07;;;5.80;;
42912;SDS011;50720;54.324;18.558;2024-01-10T05:42:38;9.48;;;5.70;;
42912;SDS011;50720;54.324;18.558;2024-01-10T05:45:09;10.13;;;5.63;;
42912;SDS011;50720;54.324;18.558;2024-01-10T05:47:39;7.47;;;4.97;;
42912;SDS011;50720;54.324;18.558;2024-01-10T05:50:09;7.40;;;5.85;;
42912;SDS011;50720;54.324;18.558;2024-01-10T05:52:39;8.68;;;5.78;;
42912;SDS011;50720;54.324;18.558;2024-01-10T05:55:12;9.45;;;6.32;;
42912;SDS011;50720;54.324;18.558;2024-01-10T05:57:44;9.10;;;5.70;;
42912;SDS011;50720;54.324;18.558;2024-01-10T06:00:14;9.13;;;5.68;;
42912;SDS011;50720;54.324;18.558;2024-01-10T06:02:45;9.27;;;5.82;;
42912;SDS011;50720;54.324;18.558;2024-01-10T06:05:15;11.48;;;6.85;;
42912;SDS011;50720;54.324;18.558;2024-01-10T06:07:45;7.03;;;5.07;;
42912;SDS011;50720;54.324;18.558;2024-01-10T06:10:15;11.73;;;6.63;;
42912;SDS011;50720;54.324;18.558;2024-01-10T06:12:47;13.20;;;6.72;;
42912;SDS011;50720;54.324;18.558;2024-01-10T06:15:17;7.97;;;4.82;;
42912;SDS011;50720;54.324;18.558;2024-01-10T06:17:47;10.95;;;6.47;;
42912;SDS011;50720;54.324;18.558;2024-01-10T06:20:18;11.32;;;6.93;;
42912;SDS011;50720;54.324;18.558;2024-01-10T06:22:47;12.30;;;7.78;;
42912;SDS011;50720;54.324;18.558;2024-01-10T06:25:18;10.07;;;7.03;;
42912;SDS011;50720;54.324;18.558;2024-01-10T06:27:49;12.35;;;7.30;;
42912;SDS011;50720;54.324;18.558;2024-01-10T06:30:19;11.20;;;6.45;;
42912;SDS011;50720;54.324;18.558;2024-01-10T06:32:49;11.13;;;6.32;;
42912;SDS011;50720;54.324;18.558;2024-01-10T06:35:19;8.18;;;5.88;;
42912;SDS011;50720;54.324;18.558;2024-01-10T06:37:49;9.30;;;6.03;;
42912;SDS011;50720;54.324;18.558;2024-01-10T06:40:20;10.77;;;6.78;;
42912;SDS011;50720;54.324;18.558;2024-01-10T06:42:51;11.18;;;6.55;;
42912;SDS011;50720;54.324;18.558;2024-01-10T06:45:22;11.80;;;6.97;;
42912;SDS011;50720;54.324;18.558;2024-01-10T06:47:51;13.05;;;7.55;;
42912;SDS011;50720;54.324;18.558;2024-01-10T06:50:22;8.25;;;5.30;;
42912;SDS011;50720;54.324;18.558;2024-01-10T06:52:51;12.95;;;8.85;;
42912;SDS011;50720;54.324;18.558;2024-01-10T06:55:22;7.53;;;5.55;;
42912;SDS011;50720;54.324;18.558;2024-01-10T06:57:54;10.52;;;6.75;;
42912;SDS011;50720;54.324;18.558;2024-01-10T07:00:25;10.75;;;6.47;;
42912;SDS011;50720;54.324;18.558;2024-01-10T07:02:55;14.73;;;8.02;;
42912;SDS011;50720;54.324;18.558;2024-01-10T07:05:25;13.20;;;7.70;;
42912;SDS011;50720;54.324;18.558;2024-01-10T07:07:55;11.38;;;7.45;;
42912;SDS011;50720;54.324;18.558;2024-01-10T07:10:26;12.13;;;7.25;;
42912;SDS011;50720;54.324;18.558;2024-01-10T07:12:57;14.75;;;7.15;;
42912;SDS011;50720;54.324;18.558;2024-01-10T07:15:27;14.32;;;8.13;;
42912;SDS011;50720;54.324;18.558;2024-01-10T07:17:57;14.65;;;8.98;;
42912;SDS011;50720;54.324;18.558;2024-01-10T07:20:27;13.68;;;8.40;;
42912;SDS011;50720;54.324;18.558;2024-01-10T07:22:57;12.35;;;7.57;;
42912;SDS011;50720;54.324;18.558;2024-01-10T07:25:28;11.68;;;7.75;;
42912;SDS011;50720;54.324;18.558;2024-01-10T07:27:59;14.65;;;8.10;;
42912;SDS011;50720;54.324;18.558;2024-01-10T07:30:29;12.75;;;7.80;;
42912;SDS011;50720;54.324;18.558;2024-01-10T07:35:31;12.93;;;8.20;;
42912;SDS011;50720;54.324;18.558;2024-01-10T07:38:00;11.20;;;6.95;;
42912;SDS011;50720;54.324;18.558;2024-01-10T07:40:31;10.80;;;7.40;;
42912;SDS011;50720;54.324;18.558;2024-01-10T07:43:02;11.68;;;7.22;;
42912;SDS011;50720;54.324;18.558;2024-01-10T07:45:33;12.55;;;7.28;;
42912;SDS011;50720;54.324;18.558;2024-01-10T07:48:03;12.38;;;7.68;;
42912;SDS011;50720;54.324;18.558;2024-01-10T07:53:03;11.43;;;7.65;;
42912;SDS011;50720;54.324;18.558;2024-01-10T07:55:33;15.32;;;8.13;;
42912;SDS011;50720;54.324;18.558;2024-01-10T07:58:05;8.85;;;6.28;;
42912;SDS011;50720;54.324;18.558;2024-01-10T08:00:35;10.30;;;7.20;;
42912;SDS011;50720;54.324;18.558;2024-01-10T08:03:05;9.05;;;5.65;;
42912;SDS011;50720;54.324;18.558;2024-01-10T08:05:35;8.52;;;5.72;;
42912;SDS011;50720;54.324;18.558;2024-01-10T08:08:05;10.57;;;6.82;;
42912;SDS011;50720;54.324;18.558;2024-01-10T08:10:37;8.88;;;6.22;;
42912;SDS011;50720;54.324;18.558;2024-01-10T08:13:08;9.85;;;5.80;;
42912;SDS011;50720;54.324;18.558;2024-01-10T08:15:39;11.68;;;7.00;;
42912;SDS011;50720;54.324;18.558;2024-01-10T08:18:09;11.50;;;6.93;;
42912;SDS011;50720;54.324;18.558;2024-01-10T08:20:39;15.50;;;7.07;;
42912;SDS011;50720;54.324;18.558;2024-01-10T08:23:09;13.05;;;7.10;;
42912;SDS011;50720;54.324;18.558;2024-01-10T08:25:39;13.53;;;8.87;;
42912;SDS011;50720;54.324;18.558;2024-01-10T08:28:13;17.95;;;8.50;;
42912;SDS011;50720;54.324;18.558;2024-01-10T08:30:44;16.75;;;7.70;;
42912;SDS011;50720;54.324;18.558;2024-01-10T08:33:14;16.00;;;8.13;;
42912;SDS011;50720;54.324;18.558;2024-01-10T08:35:45;14.90;;;8.85;;
42912;SDS011;50720;54.324;18.558;2024-01-10T08:38:15;18.25;;;9.45;;
42912;SDS011;50720;54.324;18.558;2024-01-10T08:40:46;14.07;;;9.23;;
42912;SDS011;50720;54.324;18.558;2024-01-10T08:43:18;17.48;;;9.23;;
42912;SDS011;50720;54.324;18.558;2024-01-10T08:45:48;16.55;;;7.93;;
42912;SDS011;50720;54.324;18.558;2024-01-10T08:48:18;14.70;;;8.10;;
42912;SDS011;50720;54.324;18.558;2024-01-10T08:50:48;14.98;;;8.77;;
42912;SDS011;50720;54.324;18.558;2024-01-10T08:53:19;19.90;;;9.63;;
42912;SDS011;50720;54.324;18.558;2024-01-10T08:55:49;17.05;;;8.60;;
42912;SDS011;50720;54.324;18.558;2024-01-10T08:58:20;16.20;;;8.35;;
42912;SDS011;50720;54.324;18.558;2024-01-10T09:00:51;17.17;;;8.50;;
42912;SDS011;50720;54.324;18.558;2024-01-10T09:03:21;13.15;;;7.97;;
42912;SDS011;50720;54.324;18.558;2024-01-10T09:05:52;17.33;;;8.75;;
42912;SDS011;50720;54.324;18.558;2024-01-10T09:08:34;19.95;;;11.07;;
42912;SDS011;50720;54.324;18.558;2024-01-10T09:11:04;18.95;;;8.82;;
42912;SDS011;50720;54.324;18.558;2024-01-10T09:13:36;15.73;;;8.33;;
42912;SDS011;50720;54.324;18.558;2024-01-10T09:16:08;18.85;;;9.35;;
42912;SDS011;50720;54.324;18.558;2024-01-10T09:18:38;14.73;;;8.57;;
42912;SDS011;50720;54.324;18.558;2024-01-10T09:21:08;15.67;;;8.33;;
42912;SDS011;50720;54.324;18.558;2024-01-10T09:23:39;14.48;;;8.55;;
42912;SDS011;50720;54.324;18.558;2024-01-10T09:26:09;17.80;;;9.48;;
42912;SDS011;50720;54.324;18.558;2024-01-10T09:28:41;18.52;;;10.20;;
42912;SDS011;50720;54.324;18.558;2024-01-10T09:31:11;17.20;;;8.43;;
42912;SDS011;50720;54.324;18.558;2024-01-10T09:33:41;17.58;;;7.53;;
42912;SDS011;50720;54.324;18.558;2024-01-10T09:36:11;16.95;;;8.15;;
42912;SDS011;50720;54.324;18.558;2024-01-10T09:38:42;12.07;;;7.00;;
42912;SDS011;50720;54.324;18.558;2024-01-10T09:41:12;13.83;;;7.47;;
42912;SDS011;50720;54.324;18.558;2024-01-10T09:43:44;18.55;;;8.40;;
42912;SDS011;50720;54.324;18.558;2024-01-10T09:46:14;14.20;;;8.77;;
42912;SDS011;50720;54.324;18.558;2024-01-10T09:48:46;20.58;;;10.32;;
42912;SDS011;50720;54.324;18.558;2024-01-10T09:51:21;16.33;;;9.73;;
42912;SDS011;50720;54.324;18.558;2024-01-10T09:56:23;14.88;;;8.02;;
42912;SDS011;50720;54.324;18.558;2024-01-10T09:58:54;14.63;;;8.40;;
42912;SDS011;50720;54.324;18.558;2024-01-10T10:01:27;16.73;;;9.07;;
42912;SDS011;50720;54.324;18.558;2024-01-10T10:03:57;17.15;;;9.45;;
42912;SDS011;50720;54.324;18.558;2024-01-10T10:06:27;16.33;;;9.00;;
42912;SDS011;50720;54.324;18.558;2024-01-10T10:08:57;13.27;;;8.60;;
42912;SDS011;50720;54.324;18.558;2024-01-10T10:11:27;15.03;;;8.67;;
42912;SDS011;50720;54.324;18.558;2024-01-10T10:14:13;14.13;;;7.63;;
42912;SDS011;50720;54.324;18.558;2024-01-10T10:16:44;13.00;;;8.35;;
42912;SDS011;50720;54.324;18.558;2024-01-10T10:19:19;12.98;;;8.07;;
42912;SDS011;50720;54.324;18.558;2024-01-10T10:22:07;14.48;;;8.50;;
42912;SDS011;50720;54.324;18.558;2024-01-10T10:27:09;15.50;;;7.78;;
42912;SDS011;50720;54.324;18.558;2024-01-10T10:29:42;14.23;;;8.65;;
42912;SDS011;50720;54.324;18.558;2024-01-10T10:32:15;10.60;;;7.28;;
42912;SDS011;50720;54.324;18.558;2024-01-10T10:34:45;11.98;;;7.32;;
42912;SDS011;50720;54.324;18.558;2024-01-10T10:37:16;13.50;;;6.93;;
42912;SDS011;50720;54.324;18.558;2024-01-10T10:39:45;15.18;;;8.30;;
42912;SDS011;50720;54.324;18.558;2024-01-10T10:42:16;19.97;;;10.73;;
42912;SDS011;50720;54.324;18.558;2024-01-10T10:44:52;21.92;;;8.77;;
42912;SDS011;50720;54.324;18.558;2024-01-10T10:47:25;12.93;;;6.95;;
42912;SDS011;50720;54.324;18.558;2024-01-10T10:49:59;17.20;;;8.80;;
42912;SDS011;50720;54.324;18.558;2024-01-10T10:52:32;21.67;;;11.07;;
42912;SDS011;50720;54.324;18.558;2024-01-10T10:55:03;18.10;;;9.38;;
42912;SDS011;50720;54.324;18.558;2024-01-10T10:57:34;16.25;;;10.02;;
42912;SDS011;50720;54.324;18.558;2024-01-10T11:00:07;16.43;;;9.17;;
42912;SDS011;50720;54.324;18.558;2024-01-10T11:02:38;13.77;;;7.38;;
42912;SDS011;50720;54.324;18.558;2024-01-10T11:05:08;19.90;;;9.30;;
42912;SDS011;50720;54.324;18.558;2024-01-10T11:07:40;16.10;;;7.93;;
42912;SDS011;50720;54.324;18.558;2024-01-10T11:10:11;11.93;;;7.43;;
42912;SDS011;50720;54.324;18.558;2024-01-10T11:12:50;11.82;;;6.43;;
42912;SDS011;50720;54.324;18.558;2024-01-10T11:15:38;16.73;;;7.00;;
42912;SDS011;50720;54.324;18.558;2024-01-10T11:21:24;13.68;;;8.05;;
42912;SDS011;50720;54.324;18.558;2024-01-10T11:24:04;14.10;;;7.65;;
42912;SDS011;50720;54.324;18.558;2024-01-10T11:26:37;11.10;;;6.65;;
42912;SDS011;50720;54.324;18.558;2024-01-10T11:29:07;11.00;;;7.00;;
42912;SDS011;50720;54.324;18.558;2024-01-10T11:31:39;11.90;;;6.82;;
42912;SDS011;50720;54.324;18.558;2024-01-10T11:34:09;11.88;;;6.53;;
42912;SDS011;50720;54.324;18.558;2024-01-10T11:36:40;11.45;;;7.40;;
42912;SDS011;50720;54.324;18.558;2024-01-10T11:39:41;11.75;;;5.35;;
42912;SDS011;50720;54.324;18.558;2024-01-10T11:44:50;14.50;;;6.68;;
42912;SDS011;50720;54.324;18.558;2024-01-10T11:47:22;10.10;;;5.50;;
42912;SDS011;50720;54.324;18.558;2024-01-10T11:49:54;11.98;;;7.00;;
42912;SDS011;50720;54.324;18.558;2024-01-10T11:55:01;10.90;;;6.18;;
42912;SDS011;50720;54.324;18.558;2024-01-10T11:57:34;12.32;;;7.63;;
42912;SDS011;50720;54.324;18.558;2024-01-10T12:00:05;11.50;;;7.05;;
42912;SDS011;50720;54.324;18.558;2024-01-10T12:02:38;10.55;;;7.20;;
42912;SDS011;50720;54.324;18.558;2024-01-10T12:05:08;13.00;;;6.72;;
42912;SDS011;50720;54.324;18.558;2024-01-10T12:07:38;10.95;;;7.13;;
42912;SDS011;50720;54.324;18.558;2024-01-10T12:10:10;15.93;;;8.60;;
42912;SDS011;50720;54.324;18.558;2024-01-10T12:12:40;11.10;;;6.85;;
42912;SDS011;50720;54.324;18.558;2024-01-10T12:15:10;14.67;;;7.73;;
42912;SDS011;50720;54.324;18.558;2024-01-10T12:17:42;11.68;;;7.53;;
42912;SDS011;50720;54.324;18.558;2024-01-10T12:20:12;12.95;;;7.35;;
42912;SDS011;50720;54.324;18.558;2024-01-10T12:22:42;17.13;;;7.75;;
42912;SDS011;50720;54.324;18.558;2024-01-10T12:25:12;11.48;;;6.82;;
42912;SDS011;50720;54.324;18.558;2024-01-10T12:27:42;9.85;;;4.68;;
42912;SDS011;50720;54.324;18.558;2024-01-10T12:30:13;12.52;;;7.70;;
42912;SDS011;50720;54.324;18.558;2024-01-10T12:32:49;10.75;;;6.85;;
42912;SDS011;50720;54.324;18.558;2024-01-10T12:35:20;14.00;;;7.38;;
42912;SDS011;50720;54.324;18.558;2024-01-10T12:37:56;16.23;;;7.60;;
42912;SDS011;50720;54.324;18.558;2024-01-10T12:40:26;14.30;;;8.32;;
42912;SDS011;50720;54.324;18.558;2024-01-10T12:43:01;13.30;;;7.50;;
42912;SDS011;50720;54.324;18.558;2024-01-10T12:45:32;12.13;;;6.63;;
42912;SDS011;50720;54.324;18.558;2024-01-10T12:48:04;13.65;;;7.53;;
42912;SDS011;50720;54.324;18.558;2024-01-10T12:50:36;15.50;;;8.05;;
42912;SDS011;50720;54.324;18.558;2024-01-10T12:53:06;11.53;;;7.67;;
42912;SDS011;50720;54.324;18.558;2024-01-10T12:55:36;13.50;;;7.37;;
42912;SDS011;50720;54.324;18.558;2024-01-10T12:58:06;12.03;;;7.20;;
42912;SDS011;50720;54.324;18.558;2024-01-10T13:00:37;13.30;;;7.88;;
42912;SDS011;50720;54.324;18.558;2024-01-10T13:03:09;15.55;;;8.85;;
42912;SDS011;50720;54.324;18.558;2024-01-10T13:05:40;15.73;;;7.45;;
42912;SDS011;50720;54.324;18.558;2024-01-10T13:08:10;15.82;;;9.30;;
42912;SDS011;50720;54.324;18.558;2024-01-10T13:10:41;17.52;;;10.07;;
42912;SDS011;50720;54.324;18.558;2024-01-10T13:13:11;17.05;;;10.07;;
42912;SDS011;50720;54.324;18.558;2024-01-10T13:15:42;12.80;;;6.97;;
42912;SDS011;50720;54.324;18.558;2024-01-10T13:18:13;14.82;;;7.95;;
42912;SDS011;50720;54.324;18.558;2024-01-10T13:20:44;14.73;;;8.80;;
42912;SDS011;50720;54.324;18.558;2024-01-10T13:23:14;21.50;;;10.27;;
42912;SDS011;50720;54.324;18.558;2024-01-10T13:25:46;13.93;;;8.50;;
42912;SDS011;50720;54.324;18.558;2024-01-10T13:28:16;16.27;;;9.18;;
42912;SDS011;50720;54.324;18.558;2024-01-10T13:30:47;15.20;;;9.50;;
42912;SDS011;50720;54.324;18.558;2024-01-10T13:35:49;13.32;;;6.75;;
42912;SDS011;50720;54.324;18.558;2024-01-10T13:38:19;15.02;;;8.38;;
42912;SDS011;50720;54.324;18.558;2024-01-10T13:40:52;15.18;;;8.02;;
42912;SDS011;50720;54.324;18.558;2024-01-10T13:43:22;13.68;;;7.70;;
42912;SDS011;50720;54.324;18.558;2024-01-10T13:45:52;13.90;;;8.68;;
42912;SDS011;50720;54.324;18.558;2024-01-10T13:48:23;13.45;;;7.95;;
42912;SDS011;50720;54.324;18.558;2024-01-10T13:50:54;14.57;;;8.77;;
42912;SDS011;50720;54.324;18.558;2024-01-10T13:53:23;12.63;;;7.60;;
42912;SDS011;50720;54.324;18.558;2024-01-10T13:55:54;13.82;;;7.13;;
42912;SDS011;50720;54.324;18.558;2024-01-10T13:58:24;10.13;;;7.03;;
42912;SDS011;50720;54.324;18.558;2024-01-10T14:00:54;15.00;;;7.50;;
42912;SDS011;50720;54.324;18.558;2024-01-10T14:03:25;16.80;;;10.27;;
42912;SDS011;50720;54.324;18.558;2024-01-10T14:06:00;16.15;;;9.10;;
42912;SDS011;50720;54.324;18.558;2024-01-10T14:08:30;26.88;;;11.90;;
42912;SDS011;50720;54.324;18.558;2024-01-10T14:11:00;20.10;;;11.20;;
42912;SDS011;50720;54.324;18.558;2024-01-10T14:13:30;20.77;;;11.77;;
42912;SDS011;50720;54.324;18.558;2024-01-10T14:16:00;19.33;;;10.80;;
42912;SDS011;50720;54.324;18.558;2024-01-10T14:18:32;14.40;;;8.60;;
42912;SDS011;50720;54.324;18.558;2024-01-10T14:21:02;23.50;;;10.95;;
42912;SDS011;50720;54.324;18.558;2024-01-10T14:23:33;18.30;;;10.52;;
42912;SDS011;50720;54.324;18.558;2024-01-10T14:26:03;22.83;;;11.70;;
42912;SDS011;50720;54.324;18.558;2024-01-10T14:28:33;18.98;;;9.93;;
42912;SDS011;50720;54.324;18.558;2024-01-10T14:31:04;21.27;;;11.13;;
42912;SDS011;50720;54.324;18.558;2024-01-10T14:33:49;15.95;;;8.77;;
42912;SDS011;50720;54.324;18.558;2024-01-10T14:36:20;21.52;;;10.27;;
42912;SDS011;50720;54.324;18.558;2024-01-10T14:38:50;18.05;;;9.75;;
42912;SDS011;50720;54.324;18.558;2024-01-10T14:41:20;12.17;;;7.90;;
42912;SDS011;50720;54.324;18.558;2024-01-10T14:43:50;18.65;;;10.25;;
42912;SDS011;50720;54.324;18.558;2024-01-10T14:46:20;19.17;;;11.57;;
42912;SDS011;50720;54.324;18.558;2024-01-10T14:48:52;17.08;;;10.20;;
42912;SDS011;50720;54.324;18.558;2024-01-10T14:51:22;19.15;;;10.90;;
42912;SDS011;50720;54.324;18.558;2024-01-10T14:53:52;16.65;;;9.38;;
42912;SDS011;50720;54.324;18.558;2024-01-10T14:56:22;18.97;;;10.57;;
42912;SDS011;50720;54.324;18.558;2024-01-10T14:58:52;18.65;;;10.18;;
42912;SDS011;50720;54.324;18.558;2024-01-10T15:01:22;22.48;;;13.32;;
42912;SDS011;50720;54.324;18.558;2024-01-10T15:03:54;15.02;;;8.98;;
42912;SDS011;50720;54.324;18.558;2024-01-10T15:06:24;20.73;;;10.85;;
42912;SDS011;50720;54.324;18.558;2024-01-10T15:08:54;17.02;;;8.80;;
42912;SDS011;50720;54.324;18.558;2024-01-10T15:11:25;17.75;;;8.68;;